Time;durP1;ratioP1;P1;durP2;ratioP2;P2;SDS_P1;SDS_P2;PMS_P1;PMS_P2;Temp;Humidity;BMP_temperature;BMP_pressure;BME280_temperature;BME280_humidity;BME280_pressure;Samples;Min_cycle;Max_cycle;Signal;HPM_P1;HPM_P2
2024/03/05 03:32:32;;;;;;;9.13;2.86;;;11.10;99.90;;;;;;2635142;19;17831426;-81
2024/03/05 03:45:41;;;;;;;8.05;2.60;;;11.20;99.90;;;;;;7412686;19;20011;-81
2024/03/05 04:02:46;;;;;;;3.50;1.30;;;11.40;99.90;;;;;;4397190;19;20312014;-80
2024/03/05 04:05:20;;;;;;;9.63;3.15;;;11.40;99.90;;;;;;7421408;19;20018;-81
2024/03/05 04:08:06;;;;;;;14.88;3.17;;;11.40;99.90;;;;;;7414388;19;20003;-81
2024/03/05 04:11:03;;;;;;;13.57;3.50;;;11.50;99.90;;;;;;7413636;19;20010;-81
2024/03/05 04:13:50;;;;;;;23.70;3.30;;;11.50;99.90;;;;;;7414240;19;20048;-81
2024/03/05 04:16:56;;;;;;;15.90;3.22;;;11.50;99.90;;;;;;7415173;19;20030;-81
2024/03/05 04:19:51;;;;;;;11.90;2.95;;;11.50;99.90;;;;;;7415774;19;20017;-81
2024/03/05 04:22:40;;;;;;;12.57;3.22;;;11.60;99.90;;;;;;7414809;19;20003;-81
2024/03/05 04:25:31;;;;;;;8.68;3.20;;;11.60;99.90;;;;;;7417004;19;20003;-82
2024/03/05 04:30:57;;;;;;;23.70;3.10;;;11.60;99.90;;;;;;7429921;19;20010;-82
2024/03/05 04:33:31;;;;;;;10.75;3.63;;;11.60;99.90;;;;;;7447367;19;20010;-82
2024/03/05 04:39:29;;;;;;;14.02;3.13;;;11.60;99.90;;;;;;7413227;19;19998;-82
2024/03/05 04:45:42;;;;;;;13.05;3.58;;;11.50;99.90;;;;;;7420673;19;20016;-82
2024/03/05 05:02:29;;;;;;;8.50;2.70;;;11.40;99.90;;;;;;7212218;19;4141885;-82
2024/03/05 05:08:15;;;;;;;12.18;3.05;;;11.50;99.90;;;;;;7414739;19;20410;-82
2024/03/05 05:10:44;;;;;;;14.00;3.38;;;11.50;99.90;;;;;;7413701;19;20176;-81
2024/03/05 05:13:13;;;;;;;13.50;3.45;;;11.50;99.90;;;;;;7416503;19;20035;-81
2024/03/05 05:15:42;;;;;;;9.52;3.50;;;11.60;99.90;;;;;;7437289;19;20006;-81
2024/03/05 05:18:14;;;;;;;7.38;3.25;;;11.60;99.90;;;;;;7414948;19;20020;-81
2024/03/05 05:23:37;;;;;;;12.48;3.22;;;11.60;99.90;;;;;;7414821;19;20025;-82
2024/03/05 05:26:29;;;;;;;15.63;3.13;;;11.60;99.90;;;;;;7416447;19;20013;-81
2024/03/05 05:29:56;;;;;;;;;;;;;;;;;;;;;
2024/03/05 06:03:50;;;;;;;13.38;3.50;;;11.30;99.90;;;;;;7307771;18;52227;-81
2024/03/05 06:06:27;;;;;;;10.13;3.75;;;11.40;99.90;;;;;;7450584;19;20357;-82
2024/03/05 06:09:46;;;;;;;8.70;3.40;;;11.40;99.90;;;;;;7389962;19;20007;-81
2024/03/05 06:12:31;;;;;;;14.73;3.58;;;11.50;99.90;;;;;;7434252;19;20007;-82
2024/03/05 06:15:04;;;;;;;6.22;2.80;;;11.50;99.90;;;;;;7414586;19;20376;-81
2024/03/05 06:17:49;;;;;;;16.35;3.28;;;11.50;99.90;;;;;;7416012;19;20006;-82
2024/03/05 06:20:45;;;;;;;;;;;;;;;;;;;;;
2024/03/05 06:26:48;;;;;;;7.05;3.05;;;11.60;99.90;;;;;;7420621;19;20011;-82
2024/03/05 06:29:42;;;;;;;12.77;2.75;;;11.60;99.90;;;;;;7416692;19;20026;-81
2024/03/05 06:32:20;;;;;;;13.50;3.25;;;11.60;99.90;;;;;;7418913;19;20023;-81
2024/03/05 06:35:20;;;;;;;11.50;2.63;;;11.60;99.90;;;;;;7416321;19;20044;-80
2024/03/05 06:38:08;;;;;;;8.00;2.45;;;11.60;99.90;;;;;;7415280;19;20002;-81
2024/03/05 06:40:50;;;;;;;13.43;3.50;;;11.60;99.90;;;;;;7413618;19;20361;-81
2024/03/05 06:43:32;;;;;;;11.23;2.80;;;11.70;99.90;;;;;;7413947;19;20247;-81
2024/03/05 06:56:39;;;;;;;7.35;2.15;;;11.50;99.90;;;;;;7434633;19;20023;-81
2024/03/05 06:57:51;;;;;;;8.52;2.58;;;11.60;99.90;;;;;;7439188;19;20012;-83
2024/03/05 07:00:26;;;;;;;4.03;1.90;;;11.60;99.90;;;;;;7416366;19;20070;-82
2024/03/05 07:03:10;;;;;;;10.45;2.40;;;11.50;99.90;;;;;;7412949;19;20027;-81
2024/03/05 07:06:21;;;;;;;10.88;2.92;;;11.50;99.90;;;;;;7421635;19;20006;-81
2024/03/05 07:09:12;;;;;;;8.43;2.10;;;11.50;99.90;;;;;;7413761;19;20058;-81
2024/03/05 07:12:18;;;;;;;7.70;2.30;;;11.60;99.90;;;;;;7416875;19;20010;-81
2024/03/05 07:14:55;;;;;;;7.95;2.45;;;11.50;99.90;;;;;;7388451;19;20007;-80
2024/03/05 07:17:36;;;;;;;6.43;1.77;;;11.50;99.90;;;;;;7389474;19;20018;-81
2024/03/05 07:20:18;;;;;;;13.05;2.13;;;11.40;99.90;;;;;;7390752;19;20007;-81
2024/03/05 07:22:53;;;;;;;5.30;1.60;;;11.30;99.90;;;;;;7397248;19;20028;-82
2024/03/05 07:25:38;;;;;;;6.18;1.67;;;11.40;99.90;;;;;;7393031;19;20006;-82
2024/03/05 07:28:32;;;;;;;;;;;;;;;;;;;;;
2024/03/05 07:31:08;;;;;;;6.30;1.70;;;11.40;99.90;;;;;;7388268;19;20075;-82
2024/03/05 07:34:07;;;;;;;8.82;1.60;;;11.10;99.90;;;;;;7405510;19;20353;-82
2024/03/05 07:36:58;;;;;;;7.13;1.92;;;11.20;99.90;;;;;;7388804;19;20251;-83
2024/03/05 07:39:44;;;;;;;3.33;1.33;;;11.40;99.90;;;;;;7386660;19;20083;-81
2024/03/05 07:49:56;;;;;;;;;;;;;;;;;;;;;
2024/03/05 08:09:30;;;;;;;7.40;1.52;;;11.30;99.90;;;;;;7211369;19;3959283;-78
2024/03/05 08:12:04;;;;;;;;;;;11.40;99.90;;;;;;7446126;19;20035;-77
2024/03/05 08:14:33;;;;;;;5.13;1.45;;;11.50;99.90;;;;;;7414777;19;19966;-79
2024/03/05 08:17:08;;;;;;;7.35;1.58;;;11.30;99.90;;;;;;7414658;19;20029;-76
2024/03/05 08:19:38;;;;;;;5.13;1.08;;;11.20;99.90;;;;;;7416843;19;20007;-82
2024/03/05 08:22:07;;;;;;;3.47;1.08;;;11.30;99.90;;;;;;7418975;19;20011;-80
2024/03/05 08:24:38;;;;;;;4.80;1.10;;;10.90;99.90;;;;;;7437378;19;20002;-79
2024/03/05 08:27:09;;;;;;;4.63;1.50;;;11.10;99.90;;;;;;7419696;19;20022;-79
2024/03/05 08:29:39;;;;;;;6.55;1.25;;;11.20;99.90;;;;;;7416493;19;20010;-79
2024/03/05 08:35:25;;;;;;;3.45;1.15;;;11.20;99.90;;;;;;7418504;19;20082;-80
2024/03/05 08:37:58;;;;;;;7.13;1.00;;;11.10;99.90;;;;;;7415086;19;20017;-81
2024/03/05 08:40:32;;;;;;;4.07;0.90;;;11.10;99.90;;;;;;7410648;19;20013;-76
2024/03/05 08:43:03;;;;;;;3.22;1.00;;;11.10;99.90;;;;;;7415928;19;20573;-78
2024/03/05 08:45:31;;;;;;;12.07;5.32;;;11.20;99.90;;;;;;7438400;19;20006;-80
2024/03/05 08:48:00;;;;;;;10.73;3.53;;;11.40;99.90;;;;;;7432809;19;20023;-78
2024/03/05 08:50:30;;;;;;;1.00;0.75;;;11.50;99.90;;;;;;7436376;19;20011;-80
2024/03/05 08:55:45;;;;;;;9.85;0.85;;;11.70;99.90;;;;;;7436293;19;20014;-79
2024/03/05 08:58:15;;;;;;;4.10;0.90;;;11.70;99.90;;;;;;7436497;19;20868;-80
2024/03/05 09:06:36;;;;;;;4.93;1.33;;;11.60;99.90;;;;;;7434012;19;20007;-76
2024/03/05 09:09:23;;;;;;;5.60;1.50;;;11.70;99.90;;;;;;7396797;19;20253;-83
2024/03/05 09:11:58;;;;;;;6.35;1.10;;;11.60;99.90;;;;;;7385181;19;20006;-81
2024/03/05 09:14:27;;;;;;;9.50;1.30;;;11.60;99.90;;;;;;7391821;19;20010;-79
2024/03/05 09:16:56;;;;;;;2.70;0.75;;;11.70;99.90;;;;;;7389859;19;20086;-80
2024/03/05 09:19:24;;;;;;;2.75;1.15;;;11.80;99.90;;;;;;7382740;19;20078;-78
2024/03/05 09:25:17;;;;;;;11.38;1.10;;;11.80;99.90;;;;;;7280796;19;2004480;-79
2024/03/05 09:27:48;;;;;;;7.32;1.35;;;11.90;99.90;;;;;;7401429;19;20007;-79
2024/03/05 09:30:18;;;;;;;8.75;1.35;;;12.00;99.90;;;;;;7380914;19;20028;-78
2024/03/05 09:32:46;;;;;;;8.90;1.20;;;12.00;99.90;;;;;;7382793;19;20343;-78
2024/03/05 09:35:15;;;;;;;7.80;1.30;;;12.00;99.90;;;;;;7382316;19;19999;-77
2024/03/05 09:37:46;;;;;;;8.02;1.55;;;11.90;99.90;;;;;;7380092;19;20037;-77
2024/03/05 09:40:18;;;;;;;2.90;1.02;;;11.90;99.90;;;;;;7380786;19;20011;-77
2024/03/05 09:42:50;;;;;;;7.93;1.00;;;11.90;99.90;;;;;;7402479;19;20006;-76
2024/03/05 09:45:47;;;;;;;2.75;1.15;;;11.90;99.90;;;;;;7382386;19;20019;-81
2024/03/05 09:48:23;;;;;;;3.70;1.08;;;11.90;99.90;;;;;;7381381;19;20023;-82
2024/03/05 09:50:54;;;;;;;4.65;1.10;;;11.90;99.90;;;;;;7382917;19;20069;-79
2024/03/05 09:53:23;;;;;;;8.13;1.50;;;11.80;99.90;;;;;;7382516;19;20418;-79
2024/03/05 09:55:54;;;;;;;6.85;1.25;;;11.90;99.90;;;;;;7380709;19;19998;-75
2024/03/05 09:58:37;;;;;;;10.50;1.60;;;12.00;99.90;;;;;;7378033;19;20062;-74
2024/03/05 10:01:07;;;;;;;3.53;1.05;;;11.90;99.90;;;;;;7381380;19;20003;-74
2024/03/05 10:03:37;;;;;;;7.82;1.30;;;12.00;99.90;;;;;;7402787;19;20075;-75
2024/03/05 10:06:13;;;;;;;3.17;1.20;;;12.10;99.90;;;;;;7384151;19;20409;-79
2024/03/05 10:08:42;;;;;;;1.50;0.80;;;12.10;99.90;;;;;;7381662;19;20471;-78
2024/03/05 10:11:11;;;;;;;5.45;1.13;;;12.10;99.90;;;;;;7382754;19;20003;-76
2024/03/05 10:13:42;;;;;;;3.38;0.90;;;12.10;99.90;;;;;;7382777;19;20083;-78
2024/03/05 10:16:19;;;;;;;5.57;1.02;;;12.10;99.90;;;;;;7382319;19;20007;-79
2024/03/05 10:18:49;;;;;;;3.33;1.05;;;12.10;99.90;;;;;;7406167;19;20256;-79
2024/03/05 10:21:22;;;;;;;10.80;1.20;;;12.20;99.90;;;;;;7378534;19;20055;-75
2024/03/05 10:24:00;;;;;;;11.98;1.00;;;12.20;99.90;;;;;;7379646;19;20019;-75
2024/03/05 10:26:33;;;;;;;8.95;1.52;;;11.90;99.90;;;;;;7380214;19;20424;-76
2024/03/05 10:29:07;;;;;;;2.95;1.13;;;12.00;99.90;;;;;;7378503;19;20007;-78
2024/03/05 10:31:42;;;;;;;7.78;1.30;;;12.10;99.90;;;;;;7383992;19;20087;-79
2024/03/05 10:34:15;;;;;;;7.20;1.20;;;12.10;99.90;;;;;;7383088;19;20010;-78
2024/03/05 10:36:45;;;;;;;4.22;1.10;;;12.30;99.90;;;;;;7404620;19;20013;-79
2024/03/05 10:39:17;;;;;;;3.78;0.95;;;12.30;99.90;;;;;;7379614;19;20002;-76
2024/03/05 10:41:48;;;;;;;8.90;1.00;;;12.10;99.90;;;;;;7379563;19;20322;-76
2024/03/05 10:44:21;;;;;;;6.30;0.90;;;12.20;99.90;;;;;;7379766;19;20007;-76
2024/03/05 10:46:55;;;;;;;6.45;1.38;;;12.10;99.90;;;;;;7380937;19;20006;-81
2024/03/05 10:49:24;;;;;;;8.88;1.13;;;11.90;99.90;;;;;;7381094;19;20018;-78
2024/03/05 10:51:54;;;;;;;6.05;1.38;;;11.90;99.90;;;;;;7402998;19;20010;-78
2024/03/05 10:54:23;;;;;;;7.70;1.40;;;12.00;99.90;;;;;;7382149;19;20029;-78
2024/03/05 10:56:56;;;;;;;5.63;1.10;;;12.10;99.90;;;;;;7381520;19;20026;-79
2024/03/05 10:59:40;;;;;;;4.78;1.02;;;12.20;99.90;;;;;;7383293;19;20010;-75
2024/03/05 11:02:14;;;;;;;3.38;1.00;;;12.20;99.90;;;;;;7381577;19;20018;-76
2024/03/05 11:04:45;;;;;;;7.95;1.23;;;12.20;99.90;;;;;;7380630;19;20062;-76
2024/03/05 11:07:13;;;;;;;7.03;1.43;;;12.10;99.90;;;;;;7380331;19;20376;-74
2024/03/05 11:09:48;;;;;;;7.53;1.42;;;12.20;99.90;;;;;;7408453;19;20402;-79
2024/03/05 11:12:21;;;;;;;8.63;1.02;;;12.20;99.90;;;;;;7384782;19;20110;-77
2024/03/05 11:14:53;;;;;;;6.13;0.93;;;12.20;99.90;;;;;;7384017;19;20042;-78
2024/03/05 11:17:23;;;;;;;9.15;1.10;;;12.30;99.90;;;;;;7381215;19;20017;-78
2024/03/05 11:19:53;;;;;;;4.93;1.10;;;12.30;99.90;;;;;;7378654;19;20150;-75
2024/03/05 11:22:24;;;;;;;5.57;1.05;;;12.30;99.90;;;;;;7378987;19;20022;-76
2024/03/05 11:24:53;;;;;;;;;;;12.30;99.90;;;;;;7401835;19;20014;-76
2024/03/05 11:27:25;;;;;;;9.60;1.35;;;12.20;99.90;;;;;;7380326;19;19944;-77
2024/03/05 11:30:09;;;;;;;10.05;1.40;;;12.30;99.90;;;;;;7381711;19;20014;-76
2024/03/05 11:32:35;;;;;;;6.32;1.15;;;12.20;99.90;;;;;;7380011;19;20002;-77
2024/03/05 11:35:05;;;;;;;5.95;1.13;;;11.90;99.90;;;;;;7378471;19;20010;-76
2024/03/05 11:37:49;;;;;;;4.80;1.15;;;11.90;99.90;;;;;;7378808;19;20002;-75
2024/03/05 11:40:21;;;;;;;8.95;1.13;;;12.00;99.90;;;;;;7379519;19;20316;-77
2024/03/05 11:42:50;;;;;;;2.70;0.90;;;12.00;99.90;;;;;;7409829;19;20361;-81
2024/03/05 11:46:13;;;;;;;;;;;;;;;;;;;;;
2024/03/05 11:48:42;;;;;;;5.22;0.93;;;12.30;99.90;;;;;;7387632;19;20836;-78
2024/03/05 11:51:35;;;;;;;5.80;1.35;;;12.40;99.90;;;;;;7386543;19;20014;-82
2024/03/05 11:54:08;;;;;;;4.13;1.05;;;12.50;99.90;;;;;;7397423;19;20035;-78
2024/03/05 11:56:39;;;;;;;2.83;1.00;;;12.60;99.90;;;;;;7397333;19;20042;-79
2024/03/05 11:59:08;;;;;;;5.20;0.68;;;12.60;99.90;;;;;;7397738;19;20007;-78
2024/03/05 12:01:41;;;;;;;8.25;1.02;;;12.70;99.90;;;;;;7396639;19;20369;-79
2024/03/05 12:04:11;;;;;;;2.92;0.73;;;12.70;99.90;;;;;;7395751;19;20014;-78
2024/03/05 12:06:43;;;;;;;3.30;1.70;;;12.60;99.90;;;;;;7414048;19;20034;-77
2024/03/05 12:09:18;;;;;;;10.80;1.20;;;12.50;99.90;;;;;;7382613;19;20016;-77
2024/03/05 12:12:02;;;;;;;7.47;1.20;;;12.60;99.90;;;;;;7383836;19;20024;-77
2024/03/05 12:14:34;;;;;;;7.75;1.10;;;12.40;99.90;;;;;;7384230;19;20017;-77
2024/03/05 12:17:07;;;;;;;9.80;1.23;;;12.50;99.90;;;;;;7383644;19;20002;-78
2024/03/05 12:19:37;;;;;;;5.30;1.00;;;12.60;99.90;;;;;;7383902;19;20003;-77
2024/03/05 12:22:06;;;;;;;8.77;1.30;;;12.60;99.90;;;;;;7406820;19;20079;-77
2024/03/05 12:24:36;;;;;;;5.10;1.35;;;12.60;99.90;;;;;;7386300;19;20018;-77
2024/03/05 12:27:07;;;;;;;11.05;1.35;;;12.70;99.90;;;;;;7385850;19;20006;-78
2024/03/05 12:29:37;;;;;;;4.63;1.23;;;12.70;99.90;;;;;;7386097;19;20035;-79
2024/03/05 12:32:10;;;;;;;3.75;0.90;;;12.80;99.90;;;;;;7383703;19;20018;-78
2024/03/05 12:34:41;;;;;;;9.05;1.42;;;12.80;99.90;;;;;;7384069;19;20373;-77
2024/03/05 12:37:10;;;;;;;5.50;1.40;;;12.80;99.90;;;;;;7406617;19;20006;-77
2024/03/05 12:39:39;;;;;;;5.75;2.10;;;12.60;99.90;;;;;;7385765;19;20062;-76
2024/03/05 12:42:11;;;;;;;29.48;3.35;;;12.70;99.90;;;;;;7386699;19;20017;-77
2024/03/05 12:44:40;;;;;;;6.00;1.42;;;12.60;99.90;;;;;;7388933;19;20306;-77
2024/03/05 12:47:14;;;;;;;5.43;1.58;;;12.70;99.90;;;;;;7391247;19;20007;-77
2024/03/05 12:49:44;;;;;;;6.60;1.20;;;12.80;99.90;;;;;;7390106;19;19999;-77
2024/03/05 12:52:14;;;;;;;3.25;1.50;;;13.00;99.90;;;;;;7399379;19;20007;-77
2024/03/05 12:54:43;;;;;;;3.00;1.25;;;13.10;99.90;;;;;;7408727;19;20019;-77
2024/03/05 12:57:12;;;;;;;4.57;1.23;;;13.20;99.90;;;;;;7389872;19;20516;-78
2024/03/05 12:59:41;;;;;;;7.10;1.40;;;13.00;99.90;;;;;;7392872;19;20014;-77
2024/03/05 13:02:12;;;;;;;2.83;0.90;;;13.10;99.90;;;;;;7386209;19;20006;-77
2024/03/05 13:04:41;;;;;;;2.55;0.85;;;13.20;99.90;;;;;;7386938;19;20082;-79
2024/03/05 13:07:09;;;;;;;8.10;1.13;;;13.30;99.90;;;;;;7414343;19;20365;-77
2024/03/05 13:09:40;;;;;;;3.22;0.95;;;13.30;99.90;;;;;;7385867;19;20074;-77
2024/03/05 13:12:12;;;;;;;2.25;0.73;;;13.40;99.90;;;;;;7389068;19;20018;-77
2024/03/05 13:14:41;;;;;;;3.58;1.45;;;13.50;99.90;;;;;;7386585;19;20018;-78
2024/03/05 13:17:12;;;;;;;4.68;0.93;;;13.70;99.90;;;;;;7387822;19;19999;-78
2024/03/05 13:19:42;;;;;;;4.35;0.93;;;13.60;99.90;;;;;;7388276;19;20007;-78
2024/03/05 13:22:11;;;;;;;7.82;1.05;;;13.70;99.90;;;;;;7409805;19;20010;-77
2024/03/05 13:24:41;;;;;;;4.65;1.20;;;13.80;99.90;;;;;;7389706;19;20070;-78
2024/03/05 13:27:10;;;;;;;5.32;1.02;;;13.80;99.90;;;;;;7388462;19;20022;-77
2024/03/05 13:29:39;;;;;;;9.57;1.10;;;13.90;99.90;;;;;;7388593;19;20030;-77
2024/03/05 13:32:08;;;;;;;3.90;0.85;;;13.90;99.90;;;;;;7388626;19;20082;-77
2024/03/05 13:34:40;;;;;;;6.53;1.02;;;14.00;99.90;;;;;;7385782;19;20329;-77
2024/03/05 13:37:09;;;;;;;5.53;0.90;;;13.90;99.90;;;;;;7410142;19;20002;-76
2024/03/05 13:39:43;;;;;;;3.92;0.85;;;13.90;99.90;;;;;;7386597;19;20357;-77
2024/03/05 13:42:12;;;;;;;2.33;0.68;;;13.60;99.90;;;;;;7386678;19;20093;-78
2024/03/05 13:44:41;;;;;;;7.85;1.10;;;13.60;99.90;;;;;;7386875;19;20003;-77
2024/03/05 13:47:10;;;;;;;5.15;0.98;;;13.70;99.90;;;;;;7389993;19;20028;-78
2024/03/05 13:49:41;;;;;;;5.82;1.00;;;13.90;99.90;;;;;;7388026;19;20265;-77
2024/03/05 13:52:12;;;;;;;2.78;0.70;;;13.90;99.90;;;;;;7407463;19;20014;-79
2024/03/05 13:54:40;;;;;;;8.07;1.20;;;13.90;99.30;;;;;;7389522;19;20050;-78
2024/03/05 13:57:10;;;;;;;7.95;0.90;;;13.80;99.40;;;;;;7387726;19;20091;-78
2024/03/05 13:59:38;;;;;;;8.50;1.08;;;14.00;99.80;;;;;;7387008;19;20017;-78
2024/03/05 14:02:08;;;;;;;4.75;1.10;;;14.00;99.20;;;;;;7389145;19;20278;-78
2024/03/05 14:04:38;;;;;;;2.00;0.57;;;14.20;99.00;;;;;;7389177;19;20035;-78
2024/03/05 14:07:11;;;;;;;3.70;0.65;;;14.40;98.40;;;;;;7410396;19;20231;-78
2024/03/05 14:09:39;;;;;;;4.20;1.00;;;14.50;98.40;;;;;;7385013;19;20287;-77
2024/03/05 14:12:10;;;;;;;6.80;1.13;;;14.60;98.20;;;;;;7387536;19;20076;-78
2024/03/05 14:14:39;;;;;;;8.25;1.00;;;14.60;98.10;;;;;;7387882;19;20011;-78
2024/03/05 14:17:09;;;;;;;5.97;1.02;;;14.70;97.80;;;;;;7388076;19;20011;-78
2024/03/05 14:19:38;;;;;;;7.72;1.05;;;14.80;97.40;;;;;;7387213;19;20032;-77
2024/03/05 14:22:11;;;;;;;4.90;0.90;;;14.60;97.40;;;;;;7408043;19;20247;-78
2024/03/05 14:24:42;;;;;;;8.05;1.10;;;14.40;97.10;;;;;;7388288;19;20014;-78
2024/03/05 14:27:12;;;;;;;8.52;1.02;;;14.40;97.50;;;;;;7387907;19;20062;-78
2024/03/05 14:29:44;;;;;;;8.30;0.85;;;14.30;97.40;;;;;;7386789;19;20007;-80
2024/03/05 14:32:14;;;;;;;6.55;1.08;;;14.20;97.40;;;;;;7389063;19;20046;-80
2024/03/05 14:34:43;;;;;;;7.50;0.85;;;14.20;97.60;;;;;;7392782;19;20014;-79
2024/03/05 14:37:43;;;;;;;6.60;0.90;;;14.10;97.50;;;;;;7413473;19;19999;-83
2024/03/05 14:40:14;;;;;;;3.63;0.98;;;13.90;97.10;;;;;;7386414;19;20011;-81
2024/03/05 14:42:43;;;;;;;6.45;0.80;;;14.00;97.30;;;;;;7415526;19;20410;-80
2024/03/05 14:45:14;;;;;;;3.50;0.93;;;14.10;97.20;;;;;;7404196;19;20042;-75
2024/03/05 14:47:43;;;;;;;2.60;0.60;;;14.10;97.70;;;;;;7399630;19;20017;-75
2024/03/05 14:50:13;;;;;;;5.70;1.35;;;14.00;97.60;;;;;;7404193;19;20007;-78
2024/03/05 14:55:57;;;;;;;5.75;0.95;;;13.60;97.80;;;;;;7224347;19;20324;-78
2024/03/05 14:58:27;;;;;;;3.22;1.10;;;13.20;98.30;;;;;;7402981;19;20018;-78
2024/03/05 15:01:00;;;;;;;5.47;0.88;;;13.30;98.90;;;;;;7411145;19;20027;-80
2024/03/05 15:03:31;;;;;;;5.35;1.02;;;13.10;99.00;;;;;;7386532;19;20006;-79
2024/03/05 15:06:11;;;;;;;3.92;1.20;;;13.00;99.80;;;;;;7387709;19;20251;-78
2024/03/05 15:08:46;;;;;;;2.97;0.70;;;12.80;99.90;;;;;;7386415;19;20086;-80
2024/03/05 15:11:22;;;;;;;4.75;0.93;;;12.60;99.90;;;;;;7388045;19;20046;-82
2024/03/05 15:13:50;;;;;;;2.13;0.63;;;12.50;99.90;;;;;;7387425;19;20006;-80
2024/03/05 15:16:19;;;;;;;1.90;0.50;;;12.50;99.90;;;;;;7414171;19;20006;-80
2024/03/05 15:18:48;;;;;;;2.83;0.70;;;12.70;99.90;;;;;;7392806;19;20075;-79
2024/03/05 15:21:17;;;;;;;2.50;0.55;;;12.60;99.90;;;;;;7386885;19;20021;-77
2024/03/05 15:23:45;;;;;;;2.55;0.60;;;12.80;99.90;;;;;;7383582;19;20048;-77
2024/03/05 15:26:14;;;;;;;1.17;0.43;;;12.20;99.90;;;;;;7383997;19;20014;-77
2024/03/05 15:28:45;;;;;;;1.80;0.65;;;12.30;99.90;;;;;;7383325;19;20296;-76
2024/03/05 15:31:15;;;;;;;2.05;0.73;;;12.30;99.90;;;;;;7409898;19;20039;-78
2024/03/05 15:36:55;;;;;;;2.40;0.77;;;12.10;99.90;;;;;;7385031;19;20242;-79
2024/03/05 15:39:24;;;;;;;2.63;0.50;;;12.10;99.90;;;;;;7386256;19;20354;-79
2024/03/05 15:41:56;;;;;;;1.60;0.80;;;12.00;99.90;;;;;;7383484;19;20016;-78
2024/03/05 15:44:28;;;;;;;2.97;1.05;;;12.00;99.90;;;;;;7386321;19;20035;-79
2024/03/05 15:46:57;;;;;;;11.73;1.10;;;11.90;99.90;;;;;;7384771;19;20030;-78
2024/03/05 15:49:26;;;;;;;5.43;0.65;;;11.60;99.90;;;;;;7388929;19;20023;-77
2024/03/05 15:51:59;;;;;;;1.25;0.60;;;11.70;99.90;;;;;;7410742;19;20236;-78
2024/03/05 15:54:27;;;;;;;1.55;0.80;;;11.50;99.90;;;;;;7385490;19;20014;-75
2024/03/05 15:57:00;;;;;;;8.35;1.13;;;11.50;99.90;;;;;;7383565;19;20292;-77
2024/03/05 16:02:13;;;;;;;7.00;0.93;;;11.20;99.90;;;;;;7385022;19;20257;-76
2024/03/05 16:04:43;;;;;;;4.88;1.10;;;11.40;99.90;;;;;;7383473;19;20018;-77
2024/03/05 16:07:16;;;;;;;7.53;0.80;;;11.60;99.90;;;;;;7406565;19;20011;-80
2024/03/05 16:09:44;;;;;;;9.82;2.83;;;11.80;99.90;;;;;;7387806;19;20227;-80
2024/03/05 16:12:13;;;;;;;16.20;5.55;;;11.90;99.90;;;;;;7390829;19;20026;-76
2024/03/05 16:14:45;;;;;;;14.30;4.55;;;12.00;99.90;;;;;;7387673;19;20032;-77
2024/03/05 16:17:17;;;;;;;8.50;2.22;;;12.20;99.90;;;;;;7385157;19;20011;-79
2024/03/05 16:19:45;;;;;;;4.03;1.23;;;12.20;99.90;;;;;;7388888;19;20020;-77
2024/03/05 16:22:14;;;;;;;1.65;1.20;;;12.30;99.90;;;;;;7412079;19;20291;-77
2024/03/05 16:24:45;;;;;;;11.35;1.80;;;12.30;99.90;;;;;;7390275;19;20023;-75
2024/03/05 16:27:15;;;;;;;9.02;1.30;;;12.30;99.90;;;;;;7388791;19;20003;-76
2024/03/05 16:29:48;;;;;;;10.52;1.30;;;12.30;99.90;;;;;;7391726;19;20027;-78
2024/03/05 16:32:21;;;;;;;4.47;1.45;;;12.00;99.90;;;;;;7394199;19;20010;-78
2024/03/05 16:34:50;;;;;;;;;;;11.80;99.90;;;;;;7393086;19;20014;-77
2024/03/05 16:37:35;;;;;;;7.22;1.23;;;11.60;99.90;;;;;;7413361;19;19938;-81
2024/03/05 16:40:05;;;;;;;4.10;0.95;;;11.50;99.90;;;;;;7392483;19;20038;-81
2024/03/05 16:42:33;;;;;;;3.35;1.00;;;11.30;99.90;;;;;;7384710;19;20011;-78
2024/03/05 16:45:13;;;;;;;1.00;0.70;;;11.20;99.90;;;;;;7391531;19;20070;-79
2024/03/05 16:47:43;;;;;;;8.50;1.42;;;11.20;99.90;;;;;;7390196;19;20009;-80
2024/03/05 16:50:15;;;;;;;3.03;1.05;;;11.20;99.90;;;;;;7388195;19;20082;-79
2024/03/05 16:52:45;;;;;;;9.05;1.48;;;11.20;99.90;;;;;;7387171;19;20014;-81
2024/03/05 16:55:14;;;;;;;3.35;1.33;;;11.40;99.90;;;;;;7412082;19;20247;-82
2024/03/05 16:57:44;;;;;;;6.32;1.38;;;11.40;99.90;;;;;;7392574;19;20064;-81
2024/03/05 17:00:22;;;;;;;7.93;1.35;;;11.50;99.90;;;;;;7392539;19;20253;-82
2024/03/05 17:02:55;;;;;;;5.35;1.25;;;11.60;99.90;;;;;;7389842;19;20102;-80
2024/03/05 17:05:25;;;;;;;3.75;1.48;;;11.70;99.90;;;;;;7387736;19;20250;-80
2024/03/05 17:08:00;;;;;;;4.03;1.42;;;11.80;99.90;;;;;;7390381;19;20010;-80
2024/03/05 17:10:30;;;;;;;5.85;1.13;;;11.80;99.90;;;;;;7413328;19;20010;-80
2024/03/05 17:13:03;;;;;;;13.13;5.80;;;11.90;99.90;;;;;;7392264;19;19998;-80
2024/03/05 17:15:37;;;;;;;16.73;6.10;;;11.90;99.90;;;;;;7392793;19;20003;-81
2024/03/05 17:18:04;;;;;;;10.82;5.40;;;12.00;99.90;;;;;;7389894;19;20011;-80
2024/03/05 17:20:33;;;;;;;12.95;4.90;;;12.00;99.90;;;;;;7391249;19;20006;-79
2024/03/05 17:23:03;;;;;;;8.75;4.65;;;12.00;99.90;;;;;;7391940;19;20021;-80
2024/03/05 17:25:38;;;;;;;14.68;4.30;;;12.00;99.90;;;;;;7403999;19;20019;-80
2024/03/05 17:28:08;;;;;;;6.93;2.58;;;11.90;99.90;;;;;;7414463;19;20007;-79
2024/03/05 17:30:41;;;;;;;7.63;2.75;;;11.90;99.90;;;;;;7389435;19;20400;-80
2024/03/05 17:33:10;;;;;;;12.25;2.33;;;11.90;99.90;;;;;;7388874;19;20003;-80
2024/03/05 17:35:40;;;;;;;14.73;7.15;;;11.90;99.90;;;;;;7389406;19;20010;-80
2024/03/05 17:38:09;;;;;;;30.40;10.63;;;11.90;99.90;;;;;;7393244;19;20023;-81
2024/03/05 17:40:48;;;;;;;24.77;12.23;;;12.00;99.90;;;;;;7396232;19;20011;-79
2024/03/05 17:43:16;;;;;;;18.27;7.75;;;11.90;99.90;;;;;;7421355;19;20014;-78
2024/03/05 17:45:48;;;;;;;8.30;4.20;;;11.90;99.90;;;;;;7398007;19;20006;-79
2024/03/05 17:48:19;;;;;;;11.50;4.13;;;11.90;99.90;;;;;;7397255;19;20026;-82
2024/03/05 17:50:47;;;;;;;11.15;4.57;;;11.90;99.90;;;;;;7396301;19;20006;-80
2024/03/05 17:53:16;;;;;;;23.23;7.20;;;11.90;99.90;;;;;;7391887;19;20369;-79
2024/03/05 17:55:45;;;;;;;9.90;2.90;;;11.90;99.90;;;;;;7392616;19;20014;-80
2024/03/05 17:58:14;;;;;;;4.95;1.90;;;11.80;99.90;;;;;;7413418;19;20023;-80
2024/03/05 18:00:44;;;;;;;4.72;1.50;;;11.90;99.90;;;;;;7391462;19;20015;-80
2024/03/05 18:03:21;;;;;;;6.90;1.58;;;11.80;99.90;;;;;;7391178;19;20241;-80
2024/03/05 18:05:49;;;;;;;4.90;2.80;;;11.80;99.90;;;;;;7393487;19;20425;-80
2024/03/05 18:08:19;;;;;;;4.07;2.28;;;11.80;99.90;;;;;;7392105;19;20013;-79
2024/03/05 18:10:48;;;;;;;4.30;1.80;;;11.80;99.90;;;;;;7391941;19;20003;-79
2024/03/05 18:13:17;;;;;;;2.83;1.60;;;11.80;99.90;;;;;;7413202;19;20035;-80
2024/03/05 18:15:46;;;;;;;6.93;3.28;;;11.80;99.90;;;;;;7394880;19;20011;-81
2024/03/05 18:18:18;;;;;;;3.40;2.35;;;11.70;99.90;;;;;;7392599;19;20007;-81
2024/03/05 18:20:46;;;;;;;5.05;2.20;;;11.60;99.90;;;;;;7389781;19;20474;-80
2024/03/05 18:26:11;;;;;;;5.30;1.60;;;11.70;99.90;;;;;;7391760;19;20027;-81
2024/03/05 19:20:42;;;;;;;5.95;1.73;;;10.80;99.90;;;;;;7292088;19;2006296;-82
2024/03/05 19:23:24;;;;;;;;;;;;;;;;;;;;;
2024/03/05 19:26:05;;;;;;;11.43;1.80;;;10.80;99.90;;;;;;7424265;19;20040;-81
2024/03/05 19:32:41;;;;;;;;;;;;;;;;;;;;;
2024/03/05 19:35:37;;;;;;;;;;;;;;;;;;;;;
2024/03/05 19:38:16;;;;;;;16.05;1.80;;;11.00;99.90;;;;;;7416474;19;20106;-80
2024/03/05 19:41:01;;;;;;;8.43;2.10;;;10.80;99.90;;;;;;7427197;19;20058;-78
2024/03/05 19:43:49;;;;;;;12.05;1.45;;;10.80;99.90;;;;;;7438603;19;20030;-78
2024/03/05 19:46:44;;;;;;;;;;;;;;;;;;;;;
2024/03/05 19:49:19;;;;;;;10.27;1.90;;;10.90;99.90;;;;;;7412667;19;20828;-77
2024/03/05 19:51:56;;;;;;;7.32;1.83;;;10.90;99.90;;;;;;7413050;19;20023;-76
2024/03/05 19:54:50;;;;;;;9.07;2.00;;;10.90;99.90;;;;;;7413821;19;20111;-77
2024/03/05 19:57:42;;;;;;;12.73;1.80;;;10.90;99.90;;;;;;7412605;19;20013;-77
2024/03/05 20:00:35;;;;;;;13.98;2.45;;;11.00;99.90;;;;;;7412602;19;20011;-77
2024/03/05 20:03:38;;;;;;;12.77;2.38;;;10.90;99.90;;;;;;7412597;19;20002;-79
2024/03/05 20:06:09;;;;;;;9.43;1.92;;;10.90;99.90;;;;;;7413675;19;20014;-78
2024/03/05 20:08:47;;;;;;;6.13;2.07;;;10.70;99.90;;;;;;7414737;19;20002;-76
2024/03/05 20:11:25;;;;;;;4.78;2.35;;;10.60;99.90;;;;;;7413409;19;20041;-76
2024/03/05 20:14:04;;;;;;;5.75;1.10;;;10.60;99.90;;;;;;7412082;19;20016;-77
2024/03/05 20:16:51;;;;;;;8.05;1.23;;;10.60;99.90;;;;;;7417693;19;20014;-77
2024/03/05 20:22:42;;;;;;;2.78;1.13;;;10.50;99.90;;;;;;7383171;19;20015;-76
2024/03/05 20:25:24;;;;;;;1.75;0.70;;;10.50;99.90;;;;;;7382630;19;20003;-77
2024/03/05 20:28:03;;;;;;;5.13;1.10;;;10.50;99.90;;;;;;7384016;19;20003;-77
2024/03/05 20:33:23;;;;;;;4.32;0.80;;;10.40;99.90;;;;;;7385000;19;20011;-77
2024/03/05 20:35:58;;;;;;;5.50;1.40;;;10.40;99.90;;;;;;7385511;19;20127;-76
2024/03/05 20:45:04;;;;;;;4.85;1.60;;;10.60;99.90;;;;;;7395860;19;20029;-78